Time;durP1;ratioP1;P1;durP2;ratioP2;P2;SDS_P1;SDS_P2;PMS_P1;PMS_P2;Temp;Humidity;BMP_temperature;BMP_pressure;BME280_temperature;BME280_humidity;BME280_pressure;Samples;Min_cycle;Max_cycle;Signal;HPM_P1;HPM_P2
2022/03/01 00:02:12;;;;;;;17.45;10.52;;;;;;;3.72;58.11;102717.28;5062668;28;20024;-84
2022/03/01 00:04:38;;;;;;;16.65;10.00;;;;;;;3.76;59.85;102723.47;5063189;28;20060;-84
2022/03/01 00:07:04;;;;;;;21.65;10.43;;;;;;;3.73;58.59;102719.09;5064386;28;20028;-84
2022/03/01 00:09:29;;;;;;;19.65;9.65;;;;;;;3.60;58.15;102698.78;5062071;28;20079;-84
2022/03/01 00:11:54;;;;;;;18.52;10.80;;;;;;;3.60;58.71;102721.44;5063602;28;20037;-85
2022/03/01 00:14:20;;;;;;;19.38;10.18;;;;;;;3.57;58.97;102715.28;5062796;28;20029;-84
2022/03/01 00:16:45;;;;;;;17.52;10.50;;;;;;;3.57;59.35;102723.13;5063030;28;20039;-84
2022/03/01 00:19:10;;;;;;;17.27;9.85;;;;;;;3.59;59.96;102725.78;5064903;28;20024;-84
2022/03/01 00:21:35;;;;;;;18.92;9.60;;;;;;;3.54;59.50;102725.72;5058467;28;20445;-84
2022/03/01 00:24:01;;;;;;;18.20;10.27;;;;;;;3.56;59.92;102716.13;5062699;28;20134;-84
2022/03/01 00:26:26;;;;;;;19.85;10.25;;;;;;;3.48;59.94;102717.72;5061992;28;20039;-84
2022/03/01 00:28:51;;;;;;;18.70;10.23;;;;;;;3.43;60.80;102716.75;5061879;28;20123;-84
2022/03/01 00:31:17;;;;;;;20.75;10.65;;;;;;;3.38;59.58;102720.13;5060203;28;20109;-84
2022/03/01 00:33:42;;;;;;;23.35;11.38;;;;;;;3.25;59.52;102722.50;5062519;28;20038;-84
2022/03/01 00:36:08;;;;;;;23.05;10.88;;;;;;;3.17;60.01;102718.88;5063669;28;20029;-84
2022/03/01 00:38:33;;;;;;;19.00;10.05;;;;;;;3.14;60.21;102725.75;5064910;28;20024;-84
2022/03/01 00:40:59;;;;;;;25.40;11.43;;;;;;;3.08;60.81;102723.91;5063136;28;20044;-84
2022/03/01 00:43:24;;;;;;;18.35;10.35;;;;;;;3.02;60.21;102718.53;5064445;28;20020;-84
2022/03/01 00:45:52;;;;;;;18.17;10.43;;;;;;;3.06;61.60;102725.59;5065881;28;20036;-84
2022/03/01 00:48:18;;;;;;;17.33;10.23;;;;;;;3.01;60.68;102716.78;5062701;28;20458;-84
2022/03/01 00:50:43;;;;;;;18.25;10.52;;;;;;;3.04;61.24;102722.06;5061303;28;20036;-84
2022/03/01 00:53:09;;;;;;;22.55;11.40;;;;;;;3.04;60.60;102720.34;5061637;28;20036;-84
2022/03/01 00:55:34;;;;;;;20.55;11.15;;;;;;;3.09;60.85;102723.03;5061657;28;20032;-84
2022/03/01 00:58:00;;;;;;;20.13;10.80;;;;;;;3.02;61.65;102710.69;5064267;28;20056;-84
2022/03/01 01:00:26;;;;;;;18.38;10.27;;;;;;;3.03;61.15;102713.34;5064941;28;20530;-84
2022/03/01 01:02:52;;;;;;;20.48;9.95;;;;;;;2.98;61.37;102706.25;5060837;28;20537;-84
2022/03/01 01:05:17;;;;;;;21.88;11.60;;;;;;;2.87;61.31;102712.97;5065476;28;20028;-84
2022/03/01 01:07:43;;;;;;;20.38;10.85;;;;;;;2.87;62.52;102724.31;5063076;28;20206;-84
2022/03/01 01:10:09;;;;;;;20.33;11.00;;;;;;;2.87;63.19;102721.69;5060914;28;20117;-84
2022/03/01 01:12:35;;;;;;;17.92;10.70;;;;;;;2.84;61.63;102723.34;5063668;28;20020;-84
2022/03/01 01:15:01;;;;;;;19.40;10.20;;;;;;;2.84;62.63;102721.63;5059480;28;20029;-84
2022/03/01 01:17:26;;;;;;;21.77;10.45;;;;;;;2.80;61.70;102718.09;5060298;28;20435;-84
2022/03/01 01:19:52;;;;;;;21.17;11.05;;;;;;;2.82;61.68;102712.88;5095952;27;20036;-84
2022/03/01 01:25:02;;;;;;;19.17;10.45;;;;;;;2.84;60.80;102724.22;5061409;28;20090;-84
2022/03/01 01:27:28;;;;;;;21.35;11.43;;;;;;;2.76;61.39;102697.09;5060852;28;20029;-84
2022/03/01 01:29:53;;;;;;;21.05;10.82;;;;;;;2.83;62.01;102712.03;5061974;28;20149;-84
2022/03/01 01:32:18;;;;;;;21.23;10.85;;;;;;;2.91;62.42;102720.03;5062681;28;20023;-84
2022/03/01 01:34:44;;;;;;;20.73;10.90;;;;;;;2.88;63.26;102707.78;5061739;28;20103;-84
2022/03/01 01:37:09;;;;;;;23.52;11.25;;;;;;;2.90;63.00;102715.66;5063940;28;20037;-84
2022/03/01 01:39:34;;;;;;;21.10;11.05;;;;;;;2.85;63.36;102718.19;5063378;28;20024;-84
2022/03/01 01:42:00;;;;;;;21.83;10.65;;;;;;;2.82;62.64;102723.31;5061228;28;20377;-84
2022/03/01 01:44:25;;;;;;;18.17;10.50;;;;;;;2.64;62.37;102713.34;5061161;28;20028;-84
2022/03/01 01:46:50;;;;;;;23.50;10.35;;;;;;;2.62;63.23;102709.84;5063330;28;20127;-84
2022/03/01 01:49:15;;;;;;;21.85;10.48;;;;;;;2.61;62.55;102718.53;5061136;28;20399;-84
2022/03/01 01:51:41;;;;;;;19.63;10.27;;;;;;;2.62;63.07;102711.56;5061985;28;20032;-84
2022/03/01 01:54:06;;;;;;;21.40;11.00;;;;;;;2.68;62.98;102724.75;5062980;28;20482;-84
2022/03/01 01:56:32;;;;;;;20.63;10.20;;;;;;;2.63;61.69;102708.09;5062256;28;20029;-84
2022/03/01 01:58:57;;;;;;;17.60;9.38;;;;;;;2.73;61.98;102710.06;5060420;28;20020;-84
2022/03/01 02:01:23;;;;;;;20.58;11.38;;;;;;;2.72;61.33;102705.69;5060889;28;20028;-84
2022/03/01 02:03:49;;;;;;;23.83;11.93;;;;;;;2.73;61.04;102712.69;5061009;28;20028;-84
2022/03/01 02:06:14;;;;;;;21.10;10.55;;;;;;;2.75;62.64;102708.34;5062643;28;20487;-84
2022/03/01 02:08:40;;;;;;;21.08;10.35;;;;;;;2.77;62.46;102711.91;5061893;28;20439;-84
2022/03/01 02:11:06;;;;;;;18.65;10.00;;;;;;;2.83;61.61;102704.19;5062818;28;20024;-84
2022/03/01 02:13:31;;;;;;;19.35;9.98;;;;;;;2.81;61.16;102698.06;5061620;28;20020;-84
2022/03/01 02:15:57;;;;;;;20.42;10.55;;;;;;;2.81;62.18;102703.28;5061087;28;20535;-84
2022/03/01 02:18:23;;;;;;;20.55;10.65;;;;;;;2.82;61.07;102702.44;5060260;28;20036;-84
2022/03/01 02:20:49;;;;;;;19.45;10.35;;;;;;;2.78;61.85;102696.25;5062222;28;20033;-84
2022/03/01 02:23:14;;;;;;;22.42;10.07;;;;;;;2.85;61.16;102712.09;5061346;28;20385;-84
2022/03/01 02:25:40;;;;;;;20.83;10.15;;;;;;;2.82;61.51;102712.88;5061547;28;20027;-84
2022/03/01 02:28:06;;;;;;;21.77;11.18;;;;;;;2.76;61.27;102702.31;5062456;28;20035;-84
2022/03/01 02:30:32;;;;;;;16.83;9.73;;;;;;;2.74;61.63;102706.59;5061387;28;20102;-84
2022/03/01 02:32:58;;;;;;;23.83;10.93;;;;;;;2.68;63.06;102699.50;5076987;28;20032;-84
2022/03/01 02:35:23;;;;;;;21.55;11.02;;;;;;;2.70;62.90;102700.41;5062005;28;20028;-84
2022/03/01 02:37:49;;;;;;;22.38;11.68;;;;;;;2.74;64.55;102707.47;5061312;28;20123;-84
2022/03/01 02:40:15;;;;;;;23.23;11.57;;;;;;;2.72;62.08;102709.19;5062209;28;20557;-84
2022/03/01 02:42:43;;;;;;;20.45;11.27;;;;;;;2.77;63.68;102711.91;5061650;28;20499;-84
2022/03/01 02:45:11;;;;;;;22.73;11.30;;;;;;;2.67;64.75;102699.50;5061536;28;20380;-84
2022/03/01 02:47:36;;;;;;;21.65;11.63;;;;;;;2.70;63.79;102709.97;5060602;28;20147;-84
2022/03/01 02:50:03;;;;;;;20.35;10.23;;;;;;;2.65;62.36;102704.66;5060909;28;20020;-84
2022/03/01 02:52:28;;;;;;;20.80;10.77;;;;;;;2.67;63.15;102689.94;5060874;28;20313;-84
2022/03/01 02:54:54;;;;;;;20.35;11.18;;;;;;;2.67;62.00;102694.28;5061342;28;20040;-84
2022/03/01 02:57:19;;;;;;;21.48;11.13;;;;;;;2.67;61.34;102700.38;5061604;28;20029;-84
2022/03/01 02:59:47;;;;;;;19.08;11.00;;;;;;;2.66;60.89;102698.63;5062533;28;20122;-84
2022/03/01 03:02:12;;;;;;;22.27;10.35;;;;;;;2.69;61.99;102695.16;5061543;28;20032;-84
2022/03/01 03:04:39;;;;;;;20.85;10.80;;;;;;;2.64;61.50;102671.56;5061997;28;20024;-84
2022/03/01 03:07:04;;;;;;;24.00;12.25;;;;;;;2.63;60.71;102685.47;5059993;28;20032;-84
2022/03/01 03:09:30;;;;;;;23.73;12.13;;;;;;;2.62;61.14;102678.50;5059538;28;20065;-84
2022/03/01 03:11:56;;;;;;;20.90;11.82;;;;;;;2.70;61.65;102679.53;5061904;28;20032;-84
2022/03/01 03:14:21;;;;;;;19.80;11.63;;;;;;;2.75;61.48;102685.75;5060826;28;20032;-84
2022/03/01 03:16:46;;;;;;;22.40;11.40;;;;;;;2.80;62.42;102693.69;5060887;28;20107;-84
2022/03/01 03:19:15;;;;;;;24.08;11.82;;;;;;;2.78;60.93;102679.69;5061194;28;20392;-84
2022/03/01 03:21:41;;;;;;;19.00;10.60;;;;;;;2.76;60.71;102681.41;5059578;28;20270;-84
2022/03/01 03:24:06;;;;;;;19.73;10.40;;;;;;;2.80;61.48;102683.25;5060475;28;20302;-84
2022/03/01 03:26:31;;;;;;;22.13;12.38;;;;;;;2.80;61.51;102670.19;5059541;28;20124;-84
2022/03/01 03:28:56;;;;;;;23.83;11.38;;;;;;;2.83;61.48;102682.41;5061114;28;20032;-84
2022/03/01 03:31:22;;;;;;;19.42;11.13;;;;;;;2.82;60.48;102686.75;5062160;28;20439;-84
2022/03/01 03:33:47;;;;;;;21.17;10.90;;;;;;;2.83;61.16;102691.13;5060967;28;20082;-84
2022/03/01 03:36:12;;;;;;;20.73;11.02;;;;;;;2.75;61.32;102669.19;5061201;28;20029;-84
2022/03/01 03:38:38;;;;;;;21.48;11.60;;;;;;;2.74;61.07;102685.72;5061152;28;20017;-84
2022/03/01 03:41:03;;;;;;;26.35;11.20;;;;;;;2.76;60.86;102684.03;5063535;28;20043;-84
2022/03/01 03:43:28;;;;;;;23.35;10.60;;;;;;;2.69;61.25;102677.78;5065053;28;20519;-84
2022/03/01 03:45:54;;;;;;;24.50;11.57;;;;;;;2.73;60.81;102689.19;5063420;28;20056;-84
2022/03/01 03:48:20;;;;;;;23.35;12.30;;;;;;;2.68;62.35;102682.97;5063460;28;20023;-84
2022/03/01 03:50:45;;;;;;;23.42;11.80;;;;;;;2.62;61.64;102675.88;5064660;28;20067;-84
2022/03/01 03:53:11;;;;;;;21.55;11.65;;;;;;;2.58;61.39;102681.00;5065654;28;20115;-84
2022/03/01 03:55:36;;;;;;;22.55;12.02;;;;;;;2.63;66.47;102675.03;5064809;28;20440;-84
2022/03/01 03:58:01;;;;;;;21.98;11.30;;;;;;;2.54;62.37;102675.72;5063642;28;20036;-84
2022/03/01 04:00:27;;;;;;;20.75;11.35;;;;;;;2.53;63.89;102684.41;5064292;28;20036;-84
2022/03/01 04:02:53;;;;;;;22.02;11.55;;;;;;;2.46;61.95;102666.81;5063893;28;20036;-84
2022/03/01 04:05:19;;;;;;;23.23;11.73;;;;;;;2.47;61.56;102671.22;5065878;28;20036;-84
2022/03/01 04:07:46;;;;;;;18.95;11.15;;;;;;;2.47;61.80;102670.31;5064814;28;20028;-84
2022/03/01 04:10:12;;;;;;;19.83;11.38;;;;;;;2.48;62.65;102674.69;5061614;28;20021;-84
2022/03/01 04:12:38;;;;;;;22.80;11.43;;;;;;;2.53;62.84;102687.00;5064111;28;20036;-84
2022/03/01 04:15:05;;;;;;;20.90;10.77;;;;;;;2.58;64.04;102684.50;5064239;28;20051;-85
2022/03/01 04:17:31;;;;;;;19.23;10.85;;;;;;;2.65;65.32;102677.66;5059806;28;20553;-84
2022/03/01 04:19:56;;;;;;;20.85;11.77;;;;;;;2.70;63.13;102689.09;5064647;28;20032;-84
2022/03/01 04:22:22;;;;;;;20.83;11.38;;;;;;;2.72;64.89;102679.59;5065200;28;20032;-84
2022/03/01 04:24:47;;;;;;;27.13;12.05;;;;;;;2.71;63.28;102678.69;5063642;28;20065;-84
2022/03/01 04:27:13;;;;;;;22.77;11.80;;;;;;;2.73;64.87;102678.72;5065142;28;20538;-84
2022/03/01 04:29:38;;;;;;;22.02;11.57;;;;;;;2.77;62.83;102685.78;5062338;28;20491;-84
2022/03/01 04:32:05;;;;;;;19.92;10.93;;;;;;;2.83;63.74;102687.63;5093486;28;20071;-84
2022/03/01 04:34:30;;;;;;;21.45;10.93;;;;;;;2.88;63.34;102686.88;5063148;28;20024;-84
2022/03/01 04:36:55;;;;;;;23.27;11.98;;;;;;;2.86;62.29;102678.16;5063580;28;20035;-84
2022/03/01 04:39:21;;;;;;;25.10;11.38;;;;;;;2.93;62.25;102692.19;5063666;28;20020;-84
2022/03/01 04:41:46;;;;;;;20.00;10.52;;;;;;;2.91;61.81;102683.47;5062123;28;20033;-84
2022/03/01 04:44:12;;;;;;;22.63;10.95;;;;;;;2.97;61.98;102689.69;5063237;28;20028;-84
2022/03/01 04:46:38;;;;;;;21.83;11.07;;;;;;;2.97;60.91;102691.41;5064255;28;20039;-84
2022/03/01 04:49:03;;;;;;;21.55;11.15;;;;;;;2.92;61.60;102675.66;5059981;28;20070;-84
2022/03/01 04:51:29;;;;;;;24.20;10.98;;;;;;;2.94;61.18;102688.75;5063672;28;20029;-84
2022/03/01 04:53:55;;;;;;;20.48;10.90;;;;;;;2.95;60.57;102683.56;5063271;28;20020;-84
2022/03/01 04:56:21;;;;;;;22.27;11.82;;;;;;;2.96;60.91;102682.72;5062031;28;20441;-84
2022/03/01 04:58:46;;;;;;;19.70;10.85;;;;;;;2.99;60.80;102688.00;5063360;28;20487;-84
2022/03/01 05:01:12;;;;;;;24.13;11.32;;;;;;;2.97;60.64;102680.97;5062757;28;20040;-84
2022/03/01 05:03:37;;;;;;;18.67;11.00;;;;;;;2.95;61.38;102674.84;5063162;28;20024;-84
2022/03/01 05:06:02;;;;;;;25.45;11.82;;;;;;;2.99;60.72;102682.78;5062135;28;20539;-84
2022/03/01 05:08:31;;;;;;;22.90;12.05;;;;;;;2.91;60.83;102665.19;5060561;28;20032;-84
2022/03/01 05:10:57;;;;;;;20.48;10.85;;;;;;;2.93;60.99;102674.78;5063141;28;20032;-84
2022/03/01 05:13:22;;;;;;;21.92;11.38;;;;;;;2.96;60.80;102684.44;5061510;28;20034;-84
2022/03/01 05:15:48;;;;;;;23.67;12.00;;;;;;;2.95;61.21;102677.47;5063025;28;20121;-84
2022/03/01 05:18:13;;;;;;;22.13;12.13;;;;;;;2.91;62.30;102671.28;5062273;28;20037;-84
2022/03/01 05:20:38;;;;;;;21.52;11.18;;;;;;;2.96;62.25;102674.88;5063194;28;20361;-84
2022/03/01 05:23:04;;;;;;;24.75;11.43;;;;;;;2.93;62.11;102669.56;5062564;28;20037;-84
2022/03/01 05:25:29;;;;;;;22.60;11.00;;;;;;;2.95;61.56;102677.47;5063331;28;20060;-84
2022/03/01 05:27:54;;;;;;;22.80;11.55;;;;;;;2.86;61.85;102672.91;5064189;28;20324;-84
2022/03/01 05:30:22;;;;;;;20.40;11.52;;;;;;;2.88;63.42;102679.03;5061649;28;20465;-84
2022/03/01 05:32:50;;;;;;;24.85;12.50;;;;;;;2.85;63.52;102667.69;5061922;28;20527;-84
2022/03/01 05:35:17;;;;;;;22.63;11.48;;;;;;;2.87;61.93;102666.84;5062375;28;20034;-84
2022/03/01 05:37:44;;;;;;;23.17;11.57;;;;;;;2.82;62.30;102658.03;5063783;28;20492;-85
2022/03/01 05:40:12;;;;;;;25.38;11.90;;;;;;;2.74;62.61;102657.84;5063268;28;20017;-84
2022/03/01 05:42:38;;;;;;;24.35;11.77;;;;;;;2.69;62.74;102651.66;5063302;28;20117;-84
2022/03/01 05:45:04;;;;;;;26.58;13.07;;;;;;;2.68;62.63;102651.63;5063654;28;20024;-84
2022/03/01 05:47:30;;;;;;;21.58;11.75;;;;;;;2.63;62.34;102643.69;5061962;28;20034;-84
2022/03/01 05:49:56;;;;;;;26.98;12.77;;;;;;;2.67;62.55;102657.72;5060952;28;20024;-84
2022/03/01 05:52:21;;;;;;;25.20;13.02;;;;;;;2.63;62.84;102659.38;5062368;28;20033;-84
2022/03/01 05:54:47;;;;;;;25.25;12.38;;;;;;;2.51;62.77;102635.59;5060782;28;20020;-84
2022/03/01 05:57:12;;;;;;;22.45;12.10;;;;;;;2.52;62.83;102648.69;5060584;28;20037;-84
2022/03/01 05:59:38;;;;;;;21.33;12.15;;;;;;;2.50;62.84;102649.50;5059966;28;20020;-85
2022/03/01 06:02:03;;;;;;;22.40;12.07;;;;;;;2.46;63.45;102648.53;5060540;28;20492;-84
2022/03/01 06:04:29;;;;;;;25.00;12.23;;;;;;;2.42;64.13;102648.44;5058933;28;20028;-84
2022/03/01 06:06:54;;;;;;;23.80;12.02;;;;;;;2.45;63.33;102645.91;5059654;28;20020;-84
2022/03/01 06:09:20;;;;;;;24.73;11.77;;;;;;;2.46;63.05;102642.44;5060567;28;20369;-84
2022/03/01 06:11:45;;;;;;;29.60;12.15;;;;;;;2.41;62.75;102639.72;5061767;28;20418;-84
2022/03/01 06:14:10;;;;;;;26.60;13.13;;;;;;;2.33;62.31;102633.44;5062266;28;20032;-84
2022/03/01 06:16:36;;;;;;;26.42;13.23;;;;;;;2.40;63.06;102644.94;5059953;28;20166;-84
2022/03/01 06:19:01;;;;;;;22.17;12.18;;;;;;;2.40;63.03;102645.81;5059557;28;20028;-84
2022/03/01 06:21:27;;;;;;;24.80;13.02;;;;;;;2.37;62.57;102639.63;5059340;28;20024;-84
2022/03/01 06:23:52;;;;;;;26.27;12.48;;;;;;;2.41;65.26;102636.25;5062517;28;20192;-85
2022/03/01 06:26:18;;;;;;;26.95;12.98;;;;;;;2.47;63.85;102647.72;5061933;28;20475;-84
2022/03/01 06:28:43;;;;;;;31.50;12.48;;;;;;;2.47;64.24;102647.72;5062160;28;20044;-84
2022/03/01 06:31:09;;;;;;;22.63;12.40;;;;;;;2.44;64.51;102645.03;5062627;28;20510;-84
2022/03/01 06:33:34;;;;;;;24.48;12.13;;;;;;;2.38;64.80;102647.50;5061356;28;20468;-85
2022/03/01 06:35:59;;;;;;;29.02;13.15;;;;;;;2.40;64.42;102651.03;5061120;28;20032;-84
2022/03/01 06:38:26;;;;;;;21.83;12.27;;;;;;;2.40;64.18;102652.75;5062129;28;20040;-84
2022/03/01 06:40:55;;;;;;;24.15;12.05;;;;;;;2.38;63.22;102649.22;5061635;28;20120;-84
2022/03/01 06:43:21;;;;;;;22.05;12.02;;;;;;;2.38;63.81;102655.34;5061820;28;20500;-84
2022/03/01 06:45:47;;;;;;;24.83;12.68;;;;;;;2.49;63.14;102677.34;5060178;28;21076;-85
2022/03/01 06:48:12;;;;;;;23.75;11.40;;;;;;;2.57;63.20;102668.81;5062065;28;20074;-84
2022/03/01 06:50:38;;;;;;;21.15;12.32;;;;;;;2.60;61.89;102668.84;5061835;28;20799;-84
2022/03/01 06:53:03;;;;;;;26.02;12.40;;;;;;;2.67;63.80;102674.25;5060448;28;20032;-84
2022/03/01 06:55:29;;;;;;;23.00;12.23;;;;;;;2.70;61.73;102671.69;5060391;28;20035;-84
2022/03/01 06:57:55;;;;;;;22.27;11.20;;;;;;;2.69;62.68;102671.66;5061158;28;20016;-84
2022/03/01 07:00:20;;;;;;;24.30;12.48;;;;;;;2.75;61.93;102679.63;5060266;28;20663;-84
2022/03/01 07:02:45;;;;;;;25.33;12.30;;;;;;;2.82;61.66;102691.97;5059981;28;20027;-84
2022/03/01 07:05:14;;;;;;;25.45;13.30;;;;;;;2.82;61.45;102689.38;5061939;28;20086;-84
2022/03/01 07:07:40;;;;;;;24.17;12.45;;;;;;;2.87;61.28;102695.56;5061746;28;20111;-84
2022/03/01 07:10:08;;;;;;;26.30;13.18;;;;;;;2.93;62.11;102695.69;5059486;28;20025;-84
2022/03/01 07:12:33;;;;;;;23.50;12.93;;;;;;;3.04;60.96;102701.16;5061796;28;20151;-84
2022/03/01 07:14:59;;;;;;;22.80;11.65;;;;;;;3.12;61.40;102696.94;5064977;28;20135;-84
2022/03/01 07:17:24;;;;;;;23.77;12.90;;;;;;;3.22;61.45;102704.16;5063874;28;20531;-84
2022/03/01 07:19:50;;;;;;;24.27;11.63;;;;;;;3.27;61.58;102696.41;5065298;28;20490;-84
2022/03/01 07:22:16;;;;;;;22.98;12.95;;;;;;;3.40;60.64;102687.94;5063686;28;20028;-84
2022/03/01 07:24:42;;;;;;;21.30;11.88;;;;;;;3.52;61.28;102682.94;5065876;28;20053;-84
2022/03/01 07:27:07;;;;;;;26.42;12.40;;;;;;;3.65;60.89;102683.16;5062964;28;20435;-84
2022/03/01 07:29:33;;;;;;;26.33;12.57;;;;;;;3.79;60.87;102692.16;5063857;28;20040;-84
2022/03/01 07:31:59;;;;;;;23.48;12.35;;;;;;;3.83;59.66;102673.91;5063553;28;20078;-84
2022/03/01 07:34:25;;;;;;;30.75;13.27;;;;;;;3.84;59.62;102686.13;5062575;28;20418;-84
2022/03/01 07:36:51;;;;;;;24.38;13.25;;;;;;;3.91;60.00;102687.09;5065417;28;20047;-84
2022/03/01 07:39:16;;;;;;;26.65;12.88;;;;;;;3.84;59.43;102695.72;5064967;28;20032;-84
2022/03/01 07:41:41;;;;;;;20.80;11.55;;;;;;;3.92;58.80;102686.28;5064940;28;20074;-84
2022/03/01 07:44:07;;;;;;;22.27;12.35;;;;;;;3.93;60.28;102697.63;5064688;28;20442;-84
2022/03/01 07:46:32;;;;;;;24.08;12.80;;;;;;;3.96;59.66;102705.50;5061357;28;20495;-84
2022/03/01 07:48:57;;;;;;;24.60;13.93;;;;;;;4.02;58.79;102714.34;5061577;28;20033;-84
2022/03/01 07:51:23;;;;;;;24.73;12.35;;;;;;;4.07;59.52;102698.72;5062971;28;20051;-84
2022/03/01 07:53:48;;;;;;;24.30;13.43;;;;;;;4.00;58.71;102696.84;5066152;28;20029;-84
2022/03/01 07:56:14;;;;;;;28.85;12.88;;;;;;;4.07;60.30;102697.00;5062580;28;20232;-84
2022/03/01 07:58:39;;;;;;;26.30;13.52;;;;;;;4.07;59.38;102698.72;5065430;28;20044;-84
2022/03/01 08:01:04;;;;;;;29.88;12.30;;;;;;;4.07;59.79;102698.72;5062807;28;20024;-84
2022/03/01 08:03:30;;;;;;;24.38;12.65;;;;;;;4.07;60.09;102704.84;5063180;28;20057;-84
2022/03/01 08:05:55;;;;;;;24.48;11.95;;;;;;;4.13;59.85;102693.59;5062995;28;20500;-84
2022/03/01 08:08:21;;;;;;;25.85;13.07;;;;;;;4.14;59.42;102703.19;5065042;28;20032;-84
2022/03/01 08:10:49;;;;;;;21.38;12.20;;;;;;;4.12;59.77;102691.81;5060600;28;20055;-84
2022/03/01 08:13:14;;;;;;;24.63;11.85;;;;;;;4.16;59.41;102703.22;5061982;28;20078;-84
2022/03/01 08:15:39;;;;;;;24.95;12.18;;;;;;;4.18;60.27;102704.13;5064886;28;20064;-84
2022/03/01 08:18:05;;;;;;;20.83;11.50;;;;;;;4.24;60.07;102704.22;5062493;28;20119;-84
2022/03/01 08:20:31;;;;;;;24.77;12.38;;;;;;;4.25;60.15;102699.03;5063604;28;20020;-84
2022/03/01 08:22:58;;;;;;;21.83;11.90;;;;;;;4.41;59.98;102701.88;5063839;28;20028;-84
2022/03/01 08:25:23;;;;;;;21.38;12.10;;;;;;;4.44;60.06;102700.19;5063246;28;20414;-84
2022/03/01 08:27:48;;;;;;;26.83;13.38;;;;;;;4.54;59.23;102696.84;5064588;28;20219;-84
2022/03/01 08:30:14;;;;;;;21.60;11.73;;;;;;;4.73;59.03;102704.97;5064069;28;20064;-84
2022/03/01 08:32:40;;;;;;;23.63;12.27;;;;;;;4.79;58.36;102705.03;5060771;28;20032;-84
2022/03/01 08:35:06;;;;;;;21.70;12.00;;;;;;;4.92;57.75;102722.69;5063103;28;20111;-84
2022/03/01 08:37:31;;;;;;;25.27;12.55;;;;;;;4.89;57.49;102706.91;5062084;28;20078;-84
2022/03/01 08:39:56;;;;;;;23.73;11.63;;;;;;;4.96;58.08;102710.50;5061797;28;20613;-84
2022/03/01 08:42:22;;;;;;;25.63;13.15;;;;;;;5.00;57.86;102714.94;5063230;28;20105;-84
2022/03/01 08:44:47;;;;;;;22.67;11.68;;;;;;;5.09;58.94;102713.31;5062444;28;20562;-84
2022/03/01 08:47:12;;;;;;;23.98;13.52;;;;;;;5.08;57.32;102713.28;5058301;28;20044;-84
2022/03/01 08:49:38;;;;;;;24.05;12.13;;;;;;;5.15;58.76;102715.13;5060678;28;20139;-84
2022/03/01 08:52:03;;;;;;;22.23;11.23;;;;;;;5.30;58.92;102720.53;5061125;28;20031;-84
2022/03/01 08:54:29;;;;;;;22.65;11.93;;;;;;;5.31;57.72;102724.03;5059821;28;20139;-84
2022/03/01 08:56:54;;;;;;;22.77;12.80;;;;;;;5.43;57.19;102734.69;5062569;28;20415;-84
2022/03/01 08:59:20;;;;;;;23.52;12.55;;;;;;;5.47;57.82;102731.25;5060390;28;20052;-85
2022/03/01 09:01:46;;;;;;;34.10;13.40;;;;;;;5.60;58.98;102722.66;5060187;28;20416;-84
2022/03/01 09:04:11;;;;;;;21.63;11.25;;;;;;;5.81;58.49;102732.47;5059779;28;20036;-84
2022/03/01 09:06:36;;;;;;;24.08;12.10;;;;;;;6.18;57.86;102734.59;5058911;28;21157;-84
2022/03/01 09:09:02;;;;;;;24.45;12.40;;;;;;;6.36;56.32;102738.25;5060880;28;20032;-84
2022/03/01 09:11:27;;;;;;;23.48;11.90;;;;;;;6.55;56.17;102747.16;5061422;28;20060;-84
2022/03/01 09:13:53;;;;;;;24.52;12.73;;;;;;;6.70;54.71;102754.25;5063243;28;20032;-84
2022/03/01 09:16:18;;;;;;;36.45;13.98;;;;;;;7.02;53.14;102749.19;5060895;28;20123;-84
2022/03/01 09:18:44;;;;;;;23.02;12.07;;;;;;;7.97;51.63;102745.97;5062789;28;20402;-84
2022/03/01 09:21:09;;;;;;;36.15;13.82;;;;;;;9.36;49.48;102737.88;5062851;28;20051;-84
2022/03/01 09:23:35;;;;;;;30.52;11.75;;;;;;;10.35;45.80;102739.00;5059772;28;20074;-84
2022/03/01 09:26:00;;;;;;;15.57;8.32;;;;;;;10.95;43.39;102729.56;5059125;28;20039;-84
2022/03/01 09:28:26;;;;;;;19.75;11.27;;;;;;;10.89;42.79;102736.69;5060903;28;20024;-84
2022/03/01 09:30:51;;;;;;;18.90;12.07;;;;;;;9.78;44.74;102742.03;5060117;28;20033;-84
2022/03/01 09:33:18;;;;;;;22.08;13.23;;;;;;;8.86;46.79;102733.63;5059977;28;20139;-84
2022/03/01 09:35:44;;;;;;;19.95;12.70;;;;;;;8.21;47.71;102726.66;5062184;28;20540;-84
2022/03/01 09:38:09;;;;;;;14.98;9.45;;;;;;;8.11;47.84;102739.88;5060633;28;20487;-84
2022/03/01 09:40:35;;;;;;;19.98;12.23;;;;;;;7.83;48.87;102738.97;5058205;28;20052;-84
2022/03/01 09:43:01;;;;;;;22.88;12.02;;;;;;;7.85;49.72;102744.22;5061800;28;20032;-85
2022/03/01 09:45:27;;;;;;;16.73;9.68;;;;;;;7.77;49.81;102724.88;5059558;28;20047;-84
2022/03/01 09:47:52;;;;;;;20.85;12.07;;;;;;;7.80;49.13;102730.16;5059673;28;20097;-84
2022/03/01 09:50:27;;;;;;;19.55;11.82;;;;;;;7.92;51.42;102722.28;5060872;28;20024;-84
2022/03/01 09:52:57;;;;;;;21.15;11.57;;;;;;;8.05;49.77;102736.34;5063240;28;20475;-84
2022/03/01 09:55:22;;;;;;;19.65;11.15;;;;;;;8.30;51.11;102737.22;5060916;28;20036;-84
2022/03/01 09:57:48;;;;;;;20.20;10.82;;;;;;;8.50;48.91;102743.41;5060009;28;20093;-84
2022/03/01 10:00:13;;;;;;;22.38;10.82;;;;;;;8.78;50.30;102730.16;5060980;28;20024;-84
2022/03/01 10:02:42;;;;;;;23.10;12.15;;;;;;;8.73;50.12;102734.59;5062292;28;20270;-84
2022/03/01 10:05:09;;;;;;;21.00;13.13;;;;;;;8.41;47.66;102746.03;5061763;28;20075;-84
2022/03/01 10:07:34;;;;;;;18.70;11.65;;;;;;;8.26;49.67;102744.25;5062905;28;20047;-84
2022/03/01 10:10:05;;;;;;;20.73;11.82;;;;;;;8.19;50.77;102751.25;5060279;28;20016;-84
2022/03/01 10:12:31;;;;;;;21.30;11.75;;;;;;;8.00;49.49;102753.88;5062330;28;20036;-85
2022/03/01 10:14:59;;;;;;;20.17;12.20;;;;;;;7.85;50.28;102755.63;5060684;28;20093;-85
2022/03/01 10:17:34;;;;;;;24.25;12.40;;;;;;;7.81;52.31;102764.41;5061409;28;20554;-85
2022/03/01 10:20:06;;;;;;;21.95;11.50;;;;;;;7.96;51.34;102760.03;5056880;28;20029;-85
2022/03/01 10:22:31;;;;;;;;;;;;;;;8.16;50.20;102759.19;5058301;28;20020;-85
2022/03/01 10:25:07;;;;;;;21.23;11.82;;;;;;;8.20;49.13;102749.50;5061538;28;19923;-85
2022/03/01 10:27:33;;;;;;;18.95;11.15;;;;;;;8.25;51.59;102739.84;5058125;28;20039;-84
2022/03/01 10:29:59;;;;;;;22.35;11.60;;;;;;;8.21;49.57;102739.84;5060255;28;20059;-85
2022/03/01 10:32:25;;;;;;;20.48;12.75;;;;;;;8.42;49.61;102745.16;5059362;28;20059;-84
2022/03/01 10:35:08;;;;;;;23.80;12.85;;;;;;;8.56;49.07;102732.84;5060030;28;20403;-84
2022/03/01 10:37:37;;;;;;;23.00;11.50;;;;;;;8.82;47.51;102742.47;5058831;28;20024;-84
2022/03/01 10:40:23;;;;;;;20.25;12.10;;;;;;;8.94;47.51;102738.03;5059304;28;20541;-85
2022/03/01 10:42:59;;;;;;;23.40;12.18;;;;;;;8.97;48.83;102733.63;5055480;28;20115;-84
2022/03/01 10:45:45;;;;;;;20.33;11.93;;;;;;;9.20;47.96;102734.44;5057714;28;20028;-85
2022/03/01 10:48:22;;;;;;;22.83;12.85;;;;;;;9.28;44.76;102737.00;5063053;28;20024;-85
2022/03/01 10:51:01;;;;;;;24.60;13.23;;;;;;;9.30;46.99;102729.97;5063368;28;20486;-84
2022/03/01 10:53:34;;;;;;;23.13;13.27;;;;;;;9.33;45.00;102727.34;5061792;28;20028;-85
2022/03/01 10:56:05;;;;;;;21.40;13.13;;;;;;;9.41;47.20;102739.59;5063237;28;20040;-84
2022/03/01 10:58:31;;;;;;;18.83;11.20;;;;;;;9.78;45.11;102749.09;5065829;28;20025;-85
2022/03/01 11:00:57;;;;;;;21.02;11.45;;;;;;;9.94;45.93;102748.09;5063929;28;20548;-84
2022/03/01 11:03:23;;;;;;;20.35;11.45;;;;;;;10.17;43.84;102748.81;5064028;28;20036;-84
2022/03/01 11:05:49;;;;;;;16.70;11.10;;;;;;;10.62;44.78;102751.97;5063909;28;20017;-84
2022/03/01 11:08:16;;;;;;;22.73;11.90;;;;;;;10.97;44.62;102741.03;5063513;28;20566;-84
2022/03/01 11:10:43;;;;;;;21.85;11.65;;;;;;;11.02;43.63;102734.81;5063486;28;20455;-84
2022/03/01 11:13:09;;;;;;;16.00;10.98;;;;;;;11.30;44.27;102743.28;5062860;28;20424;-85
2022/03/01 11:16:03;;;;;;;19.70;11.98;;;;;;;11.49;41.18;102745.66;5064545;28;20107;-84